Airport View

Enter AWOS ICAO identifier for current METAR.

ex. KFNL

KBNW 080730Z AUTO 11004KT 10SM CLR 13/10 A2974 RMK AO2

8 Apr 2020 07:33

Frequency: 120.925

Phone: 515-432-9042

Other Area AWOS: KAMW - KPRO - KEBS - KIKV

TAF KDSM 080535Z 0806/0906 VRB04KT P6SM SKC FM081600 32011G18KT P6SM VCSH SCT080 BKN150 FM081900 34017G27KT P6SM VCSH BKN070 OVC120 FM082300 32013G20KT P6SM SCT100 BKN150 FM090400 31010KT P6SM FEW200